sensor_id;sensor_type;location;lat;lon;timestamp;P1;durP1;ratioP1;P2;durP2;ratioP2
40459;SDS011;26164;51.138;16.952;2023-09-08T00:01:57;16.92;;;9.85;;
40459;SDS011;26164;51.138;16.952;2023-09-08T00:04:24;15.07;;;9.50;;
40459;SDS011;26164;51.138;16.952;2023-09-08T00:06:50;19.08;;;10.45;;
40459;SDS011;26164;51.138;16.952;2023-09-08T00:09:16;18.08;;;9.85;;
40459;SDS011;26164;51.138;16.952;2023-09-08T00:11:45;13.82;;;9.32;;
40459;SDS011;26164;51.138;16.952;2023-09-08T00:14:11;16.13;;;10.75;;
40459;SDS011;26164;51.138;16.952;2023-09-08T00:16:38;14.18;;;9.32;;
40459;SDS011;26164;51.138;16.952;2023-09-08T00:19:08;18.30;;;9.82;;
40459;SDS011;26164;51.138;16.952;2023-09-08T00:21:37;20.33;;;9.98;;
40459;SDS011;26164;51.138;16.952;2023-09-08T00:24:06;19.25;;;9.73;;
40459;SDS011;26164;51.138;16.952;2023-09-08T00:26:33;16.58;;;9.63;;
40459;SDS011;26164;51.138;16.952;2023-09-08T00:28:59;14.45;;;10.15;;
40459;SDS011;26164;51.138;16.952;2023-09-08T00:31:25;15.95;;;9.50;;
40459;SDS011;26164;51.138;16.952;2023-09-08T00:33:51;15.18;;;9.52;;
40459;SDS011;26164;51.138;16.952;2023-09-08T00:36:17;13.93;;;9.52;;
40459;SDS011;26164;51.138;16.952;2023-09-08T00:38:44;14.85;;;9.40;;
40459;SDS011;26164;51.138;16.952;2023-09-08T00:41:11;17.98;;;9.77;;
40459;SDS011;26164;51.138;16.952;2023-09-08T00:43:37;17.08;;;9.73;;
40459;SDS011;26164;51.138;16.952;2023-09-08T00:46:03;16.85;;;9.88;;
40459;SDS011;26164;51.138;16.952;2023-09-08T00:48:30;17.27;;;10.25;;
40459;SDS011;26164;51.138;16.952;2023-09-08T00:50:58;15.50;;;10.82;;
40459;SDS011;26164;51.138;16.952;2023-09-08T00:53:26;14.20;;;10.50;;
40459;SDS011;26164;51.138;16.952;2023-09-08T00:55:54;16.23;;;10.18;;
40459;SDS011;26164;51.138;16.952;2023-09-08T00:58:20;19.73;;;10.45;;
40459;SDS011;26164;51.138;16.952;2023-09-08T01:00:46;17.83;;;11.10;;
40459;SDS011;26164;51.138;16.952;2023-09-08T01:03:12;16.02;;;11.50;;
40459;SDS011;26164;51.138;16.952;2023-09-08T01:05:38;17.65;;;11.02;;
40459;SDS011;26164;51.138;16.952;2023-09-08T01:08:06;15.02;;;10.82;;
40459;SDS011;26164;51.138;16.952;2023-09-08T01:10:35;20.48;;;11.85;;
40459;SDS011;26164;51.138;16.952;2023-09-08T01:13:04;18.88;;;11.93;;
40459;SDS011;26164;51.138;16.952;2023-09-08T01:15:31;18.00;;;11.05;;
40459;SDS011;26164;51.138;16.952;2023-09-08T01:17:59;17.88;;;11.45;;
40459;SDS011;26164;51.138;16.952;2023-09-08T01:20:43;16.35;;;11.65;;
40459;SDS011;26164;51.138;16.952;2023-09-08T01:23:19;16.73;;;11.38;;
40459;SDS011;26164;51.138;16.952;2023-09-08T01:25:51;18.48;;;12.10;;
40459;SDS011;26164;51.138;16.952;2023-09-08T01:28:18;17.52;;;11.90;;
40459;SDS011;26164;51.138;16.952;2023-09-08T01:30:46;16.80;;;12.75;;
40459;SDS011;26164;51.138;16.952;2023-09-08T01:33:12;18.20;;;12.82;;
40459;SDS011;26164;51.138;16.952;2023-09-08T01:35:38;24.13;;;13.02;;
40459;SDS011;26164;51.138;16.952;2023-09-08T01:38:04;19.85;;;13.57;;
40459;SDS011;26164;51.138;16.952;2023-09-08T01:40:31;25.75;;;13.77;;
40459;SDS011;26164;51.138;16.952;2023-09-08T01:42:58;17.45;;;13.77;;
40459;SDS011;26164;51.138;16.952;2023-09-08T01:45:24;20.83;;;14.43;;
40459;SDS011;26164;51.138;16.952;2023-09-08T01:47:49;18.02;;;13.50;;
40459;SDS011;26164;51.138;16.952;2023-09-08T01:50:15;21.35;;;14.45;;
40459;SDS011;26164;51.138;16.952;2023-09-08T01:52:46;18.90;;;14.02;;
40459;SDS011;26164;51.138;16.952;2023-09-08T01:55:13;17.85;;;13.50;;
40459;SDS011;26164;51.138;16.952;2023-09-08T01:57:38;20.95;;;13.75;;
40459;SDS011;26164;51.138;16.952;2023-09-08T02:00:05;18.88;;;14.65;;
40459;SDS011;26164;51.138;16.952;2023-09-08T02:02:38;26.83;;;15.10;;
40459;SDS011;26164;51.138;16.952;2023-09-08T02:05:05;21.10;;;14.35;;
40459;SDS011;26164;51.138;16.952;2023-09-08T02:07:32;21.95;;;14.23;;
40459;SDS011;26164;51.138;16.952;2023-09-08T02:09:58;20.85;;;14.45;;
40459;SDS011;26164;51.138;16.952;2023-09-08T02:12:24;21.70;;;14.30;;
40459;SDS011;26164;51.138;16.952;2023-09-08T02:14:52;21.20;;;14.55;;
40459;SDS011;26164;51.138;16.952;2023-09-08T02:17:18;20.33;;;13.77;;
40459;SDS011;26164;51.138;16.952;2023-09-08T02:19:58;17.85;;;13.90;;
40459;SDS011;26164;51.138;16.952;2023-09-08T02:22:29;25.25;;;16.38;;
40459;SDS011;26164;51.138;16.952;2023-09-08T02:24:55;19.17;;;14.68;;
40459;SDS011;26164;51.138;16.952;2023-09-08T02:27:23;21.42;;;15.52;;
40459;SDS011;26164;51.138;16.952;2023-09-08T02:29:50;25.25;;;15.98;;
40459;SDS011;26164;51.138;16.952;2023-09-08T02:32:20;22.33;;;15.85;;
40459;SDS011;26164;51.138;16.952;2023-09-08T02:34:46;22.13;;;15.00;;
40459;SDS011;26164;51.138;16.952;2023-09-08T02:37:17;22.98;;;16.52;;
40459;SDS011;26164;51.138;16.952;2023-09-08T02:39:45;22.58;;;17.08;;
40459;SDS011;26164;51.138;16.952;2023-09-08T02:42:12;23.60;;;16.75;;
40459;SDS011;26164;51.138;16.952;2023-09-08T02:44:38;26.05;;;17.88;;
40459;SDS011;26164;51.138;16.952;2023-09-08T02:47:04;26.40;;;17.70;;
40459;SDS011;26164;51.138;16.952;2023-09-08T02:49:32;20.70;;;14.95;;
40459;SDS011;26164;51.138;16.952;2023-09-08T02:51:59;23.98;;;18.13;;
40459;SDS011;26164;51.138;16.952;2023-09-08T02:54:24;24.00;;;19.00;;
40459;SDS011;26164;51.138;16.952;2023-09-08T02:56:50;25.42;;;17.88;;
40459;SDS011;26164;51.138;16.952;2023-09-08T02:59:17;25.92;;;18.52;;
40459;SDS011;26164;51.138;16.952;2023-09-08T03:01:45;26.33;;;18.50;;
40459;SDS011;26164;51.138;16.952;2023-09-08T03:04:11;25.88;;;17.45;;
40459;SDS011;26164;51.138;16.952;2023-09-08T03:06:38;24.00;;;17.38;;
40459;SDS011;26164;51.138;16.952;2023-09-08T03:09:03;24.85;;;18.00;;
40459;SDS011;26164;51.138;16.952;2023-09-08T03:11:30;26.52;;;18.85;;
40459;SDS011;26164;51.138;16.952;2023-09-08T03:13:56;26.17;;;19.20;;
40459;SDS011;26164;51.138;16.952;2023-09-08T03:16:24;28.83;;;20.40;;
40459;SDS011;26164;51.138;16.952;2023-09-08T03:18:49;26.75;;;19.70;;
40459;SDS011;26164;51.138;16.952;2023-09-08T03:21:17;26.60;;;18.08;;
40459;SDS011;26164;51.138;16.952;2023-09-08T03:23:43;29.05;;;19.05;;
40459;SDS011;26164;51.138;16.952;2023-09-08T03:26:09;26.75;;;19.10;;
40459;SDS011;26164;51.138;16.952;2023-09-08T03:28:35;26.15;;;19.15;;
40459;SDS011;26164;51.138;16.952;2023-09-08T03:31:02;25.08;;;18.95;;
40459;SDS011;26164;51.138;16.952;2023-09-08T03:33:29;24.95;;;19.40;;
40459;SDS011;26164;51.138;16.952;2023-09-08T03:35:56;26.92;;;19.17;;
40459;SDS011;26164;51.138;16.952;2023-09-08T03:38:22;30.20;;;19.63;;
40459;SDS011;26164;51.138;16.952;2023-09-08T03:40:49;24.45;;;19.25;;
40459;SDS011;26164;51.138;16.952;2023-09-08T03:43:15;27.63;;;18.48;;
40459;SDS011;26164;51.138;16.952;2023-09-08T03:45:41;25.77;;;17.50;;
40459;SDS011;26164;51.138;16.952;2023-09-08T03:48:08;30.45;;;19.85;;
40459;SDS011;26164;51.138;16.952;2023-09-08T03:50:35;31.92;;;19.83;;
40459;SDS011;26164;51.138;16.952;2023-09-08T03:53:01;37.55;;;19.80;;
40459;SDS011;26164;51.138;16.952;2023-09-08T03:55:27;29.65;;;22.67;;
40459;SDS011;26164;51.138;16.952;2023-09-08T03:57:53;32.30;;;23.83;;
40459;SDS011;26164;51.138;16.952;2023-09-08T04:00:23;33.05;;;23.15;;
40459;SDS011;26164;51.138;16.952;2023-09-08T04:02:49;30.38;;;20.83;;
40459;SDS011;26164;51.138;16.952;2023-09-08T04:05:16;27.00;;;21.02;;
40459;SDS011;26164;51.138;16.952;2023-09-08T04:07:43;28.08;;;21.10;;
40459;SDS011;26164;51.138;16.952;2023-09-08T04:10:10;30.73;;;22.83;;
40459;SDS011;26164;51.138;16.952;2023-09-08T04:12:36;28.63;;;20.75;;
40459;SDS011;26164;51.138;16.952;2023-09-08T04:15:02;29.08;;;22.27;;
40459;SDS011;26164;51.138;16.952;2023-09-08T04:17:28;32.50;;;23.02;;
40459;SDS011;26164;51.138;16.952;2023-09-08T04:19:55;30.27;;;23.83;;
40459;SDS011;26164;51.138;16.952;2023-09-08T04:22:21;28.27;;;23.05;;
40459;SDS011;26164;51.138;16.952;2023-09-08T04:24:47;34.15;;;23.48;;
40459;SDS011;26164;51.138;16.952;2023-09-08T04:27:13;32.90;;;22.95;;
40459;SDS011;26164;51.138;16.952;2023-09-08T04:29:42;29.92;;;23.77;;
40459;SDS011;26164;51.138;16.952;2023-09-08T04:32:08;31.15;;;21.73;;
40459;SDS011;26164;51.138;16.952;2023-09-08T04:38:21;31.00;;;22.60;;
40459;SDS011;26164;51.138;16.952;2023-09-08T04:42:12;29.88;;;22.15;;
40459;SDS011;26164;51.138;16.952;2023-09-08T04:48:40;27.88;;;21.13;;
40459;SDS011;26164;51.138;16.952;2023-09-08T04:51:10;30.27;;;20.33;;
40459;SDS011;26164;51.138;16.952;2023-09-08T04:53:53;26.65;;;20.90;;
40459;SDS011;26164;51.138;16.952;2023-09-08T04:59:12;28.85;;;20.20;;
40459;SDS011;26164;51.138;16.952;2023-09-08T05:01:40;26.90;;;21.88;;
40459;SDS011;26164;51.138;16.952;2023-09-08T05:04:07;25.08;;;19.65;;
40459;SDS011;26164;51.138;16.952;2023-09-08T05:06:35;26.20;;;19.20;;
40459;SDS011;26164;51.138;16.952;2023-09-08T05:09:01;26.23;;;19.67;;
40459;SDS011;26164;51.138;16.952;2023-09-08T05:11:30;25.20;;;19.02;;
40459;SDS011;26164;51.138;16.952;2023-09-08T05:13:57;25.02;;;18.73;;
40459;SDS011;26164;51.138;16.952;2023-09-08T05:16:25;27.02;;;18.98;;
40459;SDS011;26164;51.138;16.952;2023-09-08T05:19:08;27.25;;;17.20;;
40459;SDS011;26164;51.138;16.952;2023-09-08T05:21:36;22.08;;;17.30;;
40459;SDS011;26164;51.138;16.952;2023-09-08T05:24:03;24.33;;;16.13;;
40459;SDS011;26164;51.138;16.952;2023-09-08T05:26:35;30.25;;;17.27;;
40459;SDS011;26164;51.138;16.952;2023-09-08T05:29:01;23.10;;;16.40;;
40459;SDS011;26164;51.138;16.952;2023-09-08T05:31:27;21.20;;;16.02;;
40459;SDS011;26164;51.138;16.952;2023-09-08T05:33:53;23.48;;;16.08;;
40459;SDS011;26164;51.138;16.952;2023-09-08T05:36:20;21.40;;;15.40;;
40459;SDS011;26164;51.138;16.952;2023-09-08T05:38:47;21.80;;;15.35;;
40459;SDS011;26164;51.138;16.952;2023-09-08T05:41:13;25.83;;;14.65;;
40459;SDS011;26164;51.138;16.952;2023-09-08T05:43:40;19.60;;;13.82;;
40459;SDS011;26164;51.138;16.952;2023-09-08T05:46:07;20.58;;;14.70;;
40459;SDS011;26164;51.138;16.952;2023-09-08T05:48:33;24.25;;;13.73;;
40459;SDS011;26164;51.138;16.952;2023-09-08T05:51:00;20.55;;;13.57;;
40459;SDS011;26164;51.138;16.952;2023-09-08T05:53:27;22.02;;;13.50;;
40459;SDS011;26164;51.138;16.952;2023-09-08T05:55:55;21.00;;;13.38;;
40459;SDS011;26164;51.138;16.952;2023-09-08T05:58:22;23.42;;;14.25;;
40459;SDS011;26164;51.138;16.952;2023-09-08T06:00:50;25.02;;;13.85;;
40459;SDS011;26164;51.138;16.952;2023-09-08T06:03:17;22.13;;;13.55;;
40459;SDS011;26164;51.138;16.952;2023-09-08T06:05:43;22.75;;;13.55;;
40459;SDS011;26164;51.138;16.952;2023-09-08T06:08:10;24.67;;;13.20;;
40459;SDS011;26164;51.138;16.952;2023-09-08T06:10:40;22.25;;;12.90;;
40459;SDS011;26164;51.138;16.952;2023-09-08T06:13:07;23.05;;;13.07;;
40459;SDS011;26164;51.138;16.952;2023-09-08T06:15:34;20.20;;;13.00;;
40459;SDS011;26164;51.138;16.952;2023-09-08T06:18:00;21.13;;;13.23;;
40459;SDS011;26164;51.138;16.952;2023-09-08T06:20:27;20.30;;;13.15;;
40459;SDS011;26164;51.138;16.952;2023-09-08T06:22:54;20.85;;;13.75;;
40459;SDS011;26164;51.138;16.952;2023-09-08T06:25:21;26.50;;;14.38;;
40459;SDS011;26164;51.138;16.952;2023-09-08T06:27:47;26.63;;;14.25;;
40459;SDS011;26164;51.138;16.952;2023-09-08T06:30:13;22.08;;;14.20;;
40459;SDS011;26164;51.138;16.952;2023-09-08T06:32:40;22.60;;;14.85;;
40459;SDS011;26164;51.138;16.952;2023-09-08T06:35:06;26.92;;;14.52;;
40459;SDS011;26164;51.138;16.952;2023-09-08T06:37:36;23.42;;;14.00;;
40459;SDS011;26164;51.138;16.952;2023-09-08T06:40:06;25.52;;;15.75;;
40459;SDS011;26164;51.138;16.952;2023-09-08T06:42:33;26.92;;;16.13;;
40459;SDS011;26164;51.138;16.952;2023-09-08T06:45:17;27.73;;;14.98;;
40459;SDS011;26164;51.138;16.952;2023-09-08T06:47:43;24.77;;;14.60;;
40459;SDS011;26164;51.138;16.952;2023-09-08T06:50:10;24.40;;;15.50;;
40459;SDS011;26164;51.138;16.952;2023-09-08T06:52:36;23.30;;;14.38;;
40459;SDS011;26164;51.138;16.952;2023-09-08T06:55:05;24.25;;;15.43;;
40459;SDS011;26164;51.138;16.952;2023-09-08T06:57:31;24.63;;;14.95;;
40459;SDS011;26164;51.138;16.952;2023-09-08T06:59:57;26.70;;;15.20;;
40459;SDS011;26164;51.138;16.952;2023-09-08T07:02:23;25.98;;;15.00;;
40459;SDS011;26164;51.138;16.952;2023-09-08T07:04:51;24.83;;;14.38;;
40459;SDS011;26164;51.138;16.952;2023-09-08T07:07:17;26.30;;;15.05;;
40459;SDS011;26164;51.138;16.952;2023-09-08T07:09:54;22.90;;;15.43;;
40459;SDS011;26164;51.138;16.952;2023-09-08T07:12:27;28.50;;;16.40;;
40459;SDS011;26164;51.138;16.952;2023-09-08T07:14:54;26.17;;;15.20;;
40459;SDS011;26164;51.138;16.952;2023-09-08T07:17:20;24.60;;;14.57;;
40459;SDS011;26164;51.138;16.952;2023-09-08T07:19:46;28.45;;;14.90;;
40459;SDS011;26164;51.138;16.952;2023-09-08T07:22:12;28.27;;;15.40;;
40459;SDS011;26164;51.138;16.952;2023-09-08T07:24:40;23.23;;;15.68;;
40459;SDS011;26164;51.138;16.952;2023-09-08T07:27:06;27.17;;;16.13;;
40459;SDS011;26164;51.138;16.952;2023-09-08T07:29:32;26.73;;;14.95;;
40459;SDS011;26164;51.138;16.952;2023-09-08T07:31:59;24.80;;;15.18;;
40459;SDS011;26164;51.138;16.952;2023-09-08T07:34:26;27.67;;;15.57;;
40459;SDS011;26164;51.138;16.952;2023-09-08T07:36:51;24.27;;;14.73;;
40459;SDS011;26164;51.138;16.952;2023-09-08T07:39:18;23.13;;;15.73;;
40459;SDS011;26164;51.138;16.952;2023-09-08T07:41:44;46.47;;;21.75;;
40459;SDS011;26164;51.138;16.952;2023-09-08T07:44:11;34.15;;;15.52;;
40459;SDS011;26164;51.138;16.952;2023-09-08T07:46:37;25.20;;;14.88;;
40459;SDS011;26164;51.138;16.952;2023-09-08T07:49:04;26.02;;;14.63;;
40459;SDS011;26164;51.138;16.952;2023-09-08T07:51:30;22.98;;;14.55;;
40459;SDS011;26164;51.138;16.952;2023-09-08T07:53:57;19.85;;;13.98;;
40459;SDS011;26164;51.138;16.952;2023-09-08T07:56:23;21.58;;;13.77;;
40459;SDS011;26164;51.138;16.952;2023-09-08T07:58:50;31.00;;;16.50;;
40459;SDS011;26164;51.138;16.952;2023-09-08T08:01:16;23.35;;;14.43;;
40459;SDS011;26164;51.138;16.952;2023-09-08T08:03:44;22.75;;;14.63;;
40459;SDS011;26164;51.138;16.952;2023-09-08T08:06:09;23.02;;;14.55;;
40459;SDS011;26164;51.138;16.952;2023-09-08T08:08:35;22.45;;;13.98;;
40459;SDS011;26164;51.138;16.952;2023-09-08T08:11:14;25.80;;;13.32;;
40459;SDS011;26164;51.138;16.952;2023-09-08T08:13:45;22.73;;;13.30;;
40459;SDS011;26164;51.138;16.952;2023-09-08T08:16:11;22.58;;;13.15;;
40459;SDS011;26164;51.138;16.952;2023-09-08T08:18:38;20.73;;;12.57;;
40459;SDS011;26164;51.138;16.952;2023-09-08T08:21:04;23.92;;;12.48;;
40459;SDS011;26164;51.138;16.952;2023-09-08T08:23:31;23.95;;;13.25;;
40459;SDS011;26164;51.138;16.952;2023-09-08T08:25:57;18.13;;;11.98;;
40459;SDS011;26164;51.138;16.952;2023-09-08T08:28:23;19.52;;;11.80;;
40459;SDS011;26164;51.138;16.952;2023-09-08T08:30:50;19.42;;;11.35;;
40459;SDS011;26164;51.138;16.952;2023-09-08T08:33:17;17.63;;;11.60;;
40459;SDS011;26164;51.138;16.952;2023-09-08T08:35:50;21.77;;;12.23;;
40459;SDS011;26164;51.138;16.952;2023-09-08T08:38:16;18.65;;;11.02;;
40459;SDS011;26164;51.138;16.952;2023-09-08T08:40:45;17.83;;;11.27;;
40459;SDS011;26164;51.138;16.952;2023-09-08T08:43:11;18.33;;;11.18;;
40459;SDS011;26164;51.138;16.952;2023-09-08T08:45:37;22.77;;;11.40;;
40459;SDS011;26164;51.138;16.952;2023-09-08T08:48:04;24.83;;;11.68;;
40459;SDS011;26164;51.138;16.952;2023-09-08T08:50:31;17.45;;;11.25;;
40459;SDS011;26164;51.138;16.952;2023-09-08T08:52:58;19.58;;;11.50;;
40459;SDS011;26164;51.138;16.952;2023-09-08T08:55:25;21.02;;;11.30;;
40459;SDS011;26164;51.138;16.952;2023-09-08T08:57:51;25.65;;;10.88;;
40459;SDS011;26164;51.138;16.952;2023-09-08T09:00:19;18.58;;;10.70;;
40459;SDS011;26164;51.138;16.952;2023-09-08T09:02:49;19.10;;;10.85;;
40459;SDS011;26164;51.138;16.952;2023-09-08T09:05:20;19.90;;;10.57;;
40459;SDS011;26164;51.138;16.952;2023-09-08T09:07:49;18.80;;;11.73;;
40459;SDS011;26164;51.138;16.952;2023-09-08T09:10:15;19.63;;;10.80;;
40459;SDS011;26164;51.138;16.952;2023-09-08T09:12:57;20.30;;;11.60;;
40459;SDS011;26164;51.138;16.952;2023-09-08T09:15:29;19.90;;;10.52;;
40459;SDS011;26164;51.138;16.952;2023-09-08T09:18:02;18.17;;;10.55;;
40459;SDS011;26164;51.138;16.952;2023-09-08T09:20:29;14.63;;;9.80;;
40459;SDS011;26164;51.138;16.952;2023-09-08T09:22:55;20.70;;;11.27;;
40459;SDS011;26164;51.138;16.952;2023-09-08T09:25:22;17.45;;;10.75;;
40459;SDS011;26164;51.138;16.952;2023-09-08T09:27:57;22.20;;;11.10;;
40459;SDS011;26164;51.138;16.952;2023-09-08T09:30:26;16.58;;;10.20;;
40459;SDS011;26164;51.138;16.952;2023-09-08T09:32:59;17.02;;;10.45;;
40459;SDS011;26164;51.138;16.952;2023-09-08T09:41:17;14.77;;;9.98;;
40459;SDS011;26164;51.138;16.952;2023-09-08T09:43:45;17.50;;;9.55;;
40459;SDS011;26164;51.138;16.952;2023-09-08T09:46:12;12.88;;;9.10;;
40459;SDS011;26164;51.138;16.952;2023-09-08T09:48:38;13.63;;;9.10;;
40459;SDS011;26164;51.138;16.952;2023-09-08T09:51:16;13.68;;;9.05;;
40459;SDS011;26164;51.138;16.952;2023-09-08T09:53:45;12.63;;;8.57;;
40459;SDS011;26164;51.138;16.952;2023-09-08T09:56:11;23.92;;;9.40;;
40459;SDS011;26164;51.138;16.952;2023-09-08T09:58:37;14.75;;;9.15;;
40459;SDS011;26164;51.138;16.952;2023-09-08T10:01:04;19.30;;;8.70;;
40459;SDS011;26164;51.138;16.952;2023-09-08T10:03:31;13.52;;;8.07;;
40459;SDS011;26164;51.138;16.952;2023-09-08T10:05:58;12.02;;;7.53;;
40459;SDS011;26164;51.138;16.952;2023-09-08T10:08:24;10.88;;;6.90;;
40459;SDS011;26164;51.138;16.952;2023-09-08T10:10:51;14.93;;;7.22;;
40459;SDS011;26164;51.138;16.952;2023-09-08T10:13:23;11.25;;;7.50;;
40459;SDS011;26164;51.138;16.952;2023-09-08T10:15:56;16.23;;;7.82;;
40459;SDS011;26164;51.138;16.952;2023-09-08T10:18:22;13.00;;;7.25;;
40459;SDS011;26164;51.138;16.952;2023-09-08T10:20:53;20.92;;;7.97;;
40459;SDS011;26164;51.138;16.952;2023-09-08T10:23:22;14.38;;;7.22;;
40459;SDS011;26164;51.138;16.952;2023-09-08T10:25:50;11.93;;;7.10;;
40459;SDS011;26164;51.138;16.952;2023-09-08T10:28:21;11.80;;;7.05;;
40459;SDS011;26164;51.138;16.952;2023-09-08T10:30:48;13.20;;;6.78;;
40459;SDS011;26164;51.138;16.952;2023-09-08T10:33:14;10.23;;;6.60;;
40459;SDS011;26164;51.138;16.952;2023-09-08T10:35:41;10.32;;;6.47;;
40459;SDS011;26164;51.138;16.952;2023-09-08T10:40:52;12.32;;;6.40;;
40459;SDS011;26164;51.138;16.952;2023-09-08T10:43:18;11.95;;;7.07;;
40459;SDS011;26164;51.138;16.952;2023-09-08T10:45:46;8.73;;;6.00;;
40459;SDS011;26164;51.138;16.952;2023-09-08T10:48:12;9.20;;;6.22;;
40459;SDS011;26164;51.138;16.952;2023-09-08T10:50:39;15.15;;;6.35;;
40459;SDS011;26164;51.138;16.952;2023-09-08T10:55:39;12.88;;;6.80;;
40459;SDS011;26164;51.138;16.952;2023-09-08T10:58:06;14.43;;;6.72;;
40459;SDS011;26164;51.138;16.952;2023-09-08T11:00:47;15.57;;;6.60;;
40459;SDS011;26164;51.138;16.952;2023-09-08T11:03:25;15.00;;;6.65;;
40459;SDS011;26164;51.138;16.952;2023-09-08T11:05:58;11.93;;;7.22;;
40459;SDS011;26164;51.138;16.952;2023-09-08T11:08:24;13.82;;;7.57;;
40459;SDS011;26164;51.138;16.952;2023-09-08T11:10:53;12.73;;;6.30;;
40459;SDS011;26164;51.138;16.952;2023-09-08T11:13:19;15.43;;;6.78;;
40459;SDS011;26164;51.138;16.952;2023-09-08T11:15:45;12.70;;;6.55;;
40459;SDS011;26164;51.138;16.952;2023-09-08T11:18:12;11.27;;;6.38;;
40459;SDS011;26164;51.138;16.952;2023-09-08T11:20:41;14.40;;;6.43;;
40459;SDS011;26164;51.138;16.952;2023-09-08T11:23:09;10.45;;;6.00;;
40459;SDS011;26164;51.138;16.952;2023-09-08T11:25:35;9.65;;;6.03;;
40459;SDS011;26164;51.138;16.952;2023-09-08T11:28:01;10.27;;;5.88;;
40459;SDS011;26164;51.138;16.952;2023-09-08T11:30:28;11.85;;;5.80;;
40459;SDS011;26164;51.138;16.952;2023-09-08T11:32:58;11.27;;;6.20;;
40459;SDS011;26164;51.138;16.952;2023-09-08T11:35:26;12.35;;;6.47;;
40459;SDS011;26164;51.138;16.952;2023-09-08T11:37:52;9.98;;;5.68;;
40459;SDS011;26164;51.138;16.952;2023-09-08T11:40:21;13.88;;;6.82;;
40459;SDS011;26164;51.138;16.952;2023-09-08T11:42:53;9.98;;;6.50;;
40459;SDS011;26164;51.138;16.952;2023-09-08T11:45:19;10.73;;;5.72;;
40459;SDS011;26164;51.138;16.952;2023-09-08T11:47:48;12.10;;;5.88;;
40459;SDS011;26164;51.138;16.952;2023-09-08T11:50:23;9.18;;;5.45;;
40459;SDS011;26164;51.138;16.952;2023-09-08T11:52:52;9.77;;;6.30;;
40459;SDS011;26164;51.138;16.952;2023-09-08T11:55:19;17.75;;;6.28;;
40459;SDS011;26164;51.138;16.952;2023-09-08T11:57:46;9.82;;;5.78;;
40459;SDS011;26164;51.138;16.952;2023-09-08T12:03:12;11.45;;;5.65;;
40459;SDS011;26164;51.138;16.952;2023-09-08T12:05:39;11.35;;;5.75;;
40459;SDS011;26164;51.138;16.952;2023-09-08T12:08:06;9.10;;;5.50;;
40459;SDS011;26164;51.138;16.952;2023-09-08T12:10:42;10.27;;;5.55;;
40459;SDS011;26164;51.138;16.952;2023-09-08T12:13:10;12.50;;;6.07;;
40459;SDS011;26164;51.138;16.952;2023-09-08T12:15:40;10.88;;;7.25;;
40459;SDS011;26164;51.138;16.952;2023-09-08T12:18:12;12.25;;;6.35;;
40459;SDS011;26164;51.138;16.952;2023-09-08T12:20:45;9.15;;;5.70;;
40459;SDS011;26164;51.138;16.952;2023-09-08T12:23:15;9.50;;;5.68;;
40459;SDS011;26164;51.138;16.952;2023-09-08T12:25:45;10.65;;;5.88;;
40459;SDS011;26164;51.138;16.952;2023-09-08T12:28:13;9.23;;;5.30;;
40459;SDS011;26164;51.138;16.952;2023-09-08T12:30:44;8.18;;;5.60;;
40459;SDS011;26164;51.138;16.952;2023-09-08T12:33:10;7.88;;;5.10;;
40459;SDS011;26164;51.138;16.952;2023-09-08T12:35:53;7.90;;;4.70;;
40459;SDS011;26164;51.138;16.952;2023-09-08T12:38:52;9.23;;;4.78;;
40459;SDS011;26164;51.138;16.952;2023-09-08T12:41:25;8.07;;;4.60;;
40459;SDS011;26164;51.138;16.952;2023-09-08T12:43:51;10.20;;;5.25;;
40459;SDS011;26164;51.138;16.952;2023-09-08T12:46:21;14.20;;;5.20;;
40459;SDS011;26164;51.138;16.952;2023-09-08T12:48:49;13.15;;;5.20;;
40459;SDS011;26164;51.138;16.952;2023-09-08T12:51:26;8.10;;;4.97;;
40459;SDS011;26164;51.138;16.952;2023-09-08T12:53:55;8.38;;;5.03;;
40459;SDS011;26164;51.138;16.952;2023-09-08T12:56:26;10.68;;;4.70;;
40459;SDS011;26164;51.138;16.952;2023-09-08T12:58:55;11.38;;;5.30;;
40459;SDS011;26164;51.138;16.952;2023-09-08T13:01:36;10.15;;;4.63;;
40459;SDS011;26164;51.138;16.952;2023-09-08T13:04:16;12.07;;;5.30;;
40459;SDS011;26164;51.138;16.952;2023-09-08T13:06:57;7.60;;;4.82;;
40459;SDS011;26164;51.138;16.952;2023-09-08T13:09:40;6.75;;;4.65;;
40459;SDS011;26164;51.138;16.952;2023-09-08T13:12:15;9.40;;;4.88;;
40459;SDS011;26164;51.138;16.952;2023-09-08T13:14:43;6.35;;;4.13;;
40459;SDS011;26164;51.138;16.952;2023-09-08T13:17:24;7.28;;;4.55;;
40459;SDS011;26164;51.138;16.952;2023-09-08T13:19:55;8.43;;;4.53;;
40459;SDS011;26164;51.138;16.952;2023-09-08T13:22:27;8.52;;;4.38;;
40459;SDS011;26164;51.138;16.952;2023-09-08T13:25:08;6.82;;;4.47;;
40459;SDS011;26164;51.138;16.952;2023-09-08T13:27:55;10.23;;;4.60;;
40459;SDS011;26164;51.138;16.952;2023-09-08T13:30:39;6.68;;;4.18;;
40459;SDS011;26164;51.138;16.952;2023-09-08T13:33:21;6.43;;;4.50;;
40459;SDS011;26164;51.138;16.952;2023-09-08T13:35:50;8.63;;;4.70;;
40459;SDS011;26164;51.138;16.952;2023-09-08T13:38:16;8.85;;;4.55;;
40459;SDS011;26164;51.138;16.952;2023-09-08T13:40:53;8.82;;;4.10;;
40459;SDS011;26164;51.138;16.952;2023-09-08T13:43:19;7.03;;;4.13;;
40459;SDS011;26164;51.138;16.952;2023-09-08T13:45:47;11.50;;;3.90;;
40459;SDS011;26164;51.138;16.952;2023-09-08T13:48:16;9.65;;;4.00;;
40459;SDS011;26164;51.138;16.952;2023-09-08T13:51:00;6.03;;;4.20;;
40459;SDS011;26164;51.138;16.952;2023-09-08T13:53:42;10.07;;;4.18;;
40459;SDS011;26164;51.138;16.952;2023-09-08T13:56:23;5.75;;;3.97;;
40459;SDS011;26164;51.138;16.952;2023-09-08T13:59:06;7.10;;;3.78;;
40459;SDS011;26164;51.138;16.952;2023-09-08T14:01:42;7.95;;;3.90;;
40459;SDS011;26164;51.138;16.952;2023-09-08T14:04:08;9.00;;;3.85;;
40459;SDS011;26164;51.138;16.952;2023-09-08T14:06:38;6.60;;;3.85;;
40459;SDS011;26164;51.138;16.952;2023-09-08T14:09:04;6.22;;;3.65;;
40459;SDS011;26164;51.138;16.952;2023-09-08T14:11:35;7.53;;;3.80;;
40459;SDS011;26164;51.138;16.952;2023-09-08T14:14:06;7.45;;;3.65;;
40459;SDS011;26164;51.138;16.952;2023-09-08T14:16:47;9.75;;;3.95;;
40459;SDS011;26164;51.138;16.952;2023-09-08T14:19:28;8.05;;;4.07;;
40459;SDS011;26164;51.138;16.952;2023-09-08T14:22:08;9.10;;;4.10;;
40459;SDS011;26164;51.138;16.952;2023-09-08T14:24:46;6.55;;;3.70;;
40459;SDS011;26164;51.138;16.952;2023-09-08T14:27:12;5.82;;;3.95;;
40459;SDS011;26164;51.138;16.952;2023-09-08T14:29:55;5.43;;;3.70;;
40459;SDS011;26164;51.138;16.952;2023-09-08T14:32:30;5.93;;;3.63;;
40459;SDS011;26164;51.138;16.952;2023-09-08T14:34:55;7.82;;;3.90;;
40459;SDS011;26164;51.138;16.952;2023-09-08T14:37:36;7.10;;;3.97;;
40459;SDS011;26164;51.138;16.952;2023-09-08T14:40:18;7.45;;;3.65;;
40459;SDS011;26164;51.138;16.952;2023-09-08T14:42:53;7.32;;;3.70;;
40459;SDS011;26164;51.138;16.952;2023-09-08T14:45:20;6.38;;;4.10;;
40459;SDS011;26164;51.138;16.952;2023-09-08T14:48:03;7.25;;;3.78;;
40459;SDS011;26164;51.138;16.952;2023-09-08T14:50:35;5.90;;;3.75;;
40459;SDS011;26164;51.138;16.952;2023-09-08T14:53:02;7.22;;;3.72;;